sensor_id;sensor_type;location;lat;lon;timestamp;P1;durP1;ratioP1;P2;durP2;ratioP2
50988;SDS011;37008;52.210;21.112;2023-04-24T00:00:40;14.68;;;7.00;;
50988;SDS011;37008;52.210;21.112;2023-04-24T00:03:06;15.13;;;7.35;;
50988;SDS011;37008;52.210;21.112;2023-04-24T00:05:32;12.88;;;7.30;;
50988;SDS011;37008;52.210;21.112;2023-04-24T00:07:57;10.38;;;6.95;;
50988;SDS011;37008;52.210;21.112;2023-04-24T00:10:23;11.52;;;6.95;;
50988;SDS011;37008;52.210;21.112;2023-04-24T00:12:49;12.55;;;7.53;;
50988;SDS011;37008;52.210;21.112;2023-04-24T00:15:15;12.30;;;7.03;;
50988;SDS011;37008;52.210;21.112;2023-04-24T00:17:40;14.02;;;7.28;;
50988;SDS011;37008;52.210;21.112;2023-04-24T00:20:06;8.70;;;6.40;;
50988;SDS011;37008;52.210;21.112;2023-04-24T00:22:32;10.95;;;7.13;;
50988;SDS011;37008;52.210;21.112;2023-04-24T00:24:58;13.70;;;7.85;;
50988;SDS011;37008;52.210;21.112;2023-04-24T00:27:24;10.90;;;7.72;;
50988;SDS011;37008;52.210;21.112;2023-04-24T00:29:50;12.05;;;7.78;;
50988;SDS011;37008;52.210;21.112;2023-04-24T00:32:15;13.13;;;7.80;;
50988;SDS011;37008;52.210;21.112;2023-04-24T00:34:42;14.77;;;7.95;;
50988;SDS011;37008;52.210;21.112;2023-04-24T00:37:08;14.13;;;7.88;;
50988;SDS011;37008;52.210;21.112;2023-04-24T00:39:33;12.00;;;7.78;;
50988;SDS011;37008;52.210;21.112;2023-04-24T00:41:59;14.70;;;7.90;;
50988;SDS011;37008;52.210;21.112;2023-04-24T00:44:26;13.25;;;7.93;;
50988;SDS011;37008;52.210;21.112;2023-04-24T00:46:52;12.88;;;7.88;;
50988;SDS011;37008;52.210;21.112;2023-04-24T00:49:20;12.95;;;7.85;;
50988;SDS011;37008;52.210;21.112;2023-04-24T00:51:46;13.70;;;7.72;;
50988;SDS011;37008;52.210;21.112;2023-04-24T00:54:14;16.88;;;8.43;;
50988;SDS011;37008;52.210;21.112;2023-04-24T00:56:40;14.40;;;8.90;;
50988;SDS011;37008;52.210;21.112;2023-04-24T00:59:10;17.70;;;9.30;;
50988;SDS011;37008;52.210;21.112;2023-04-24T01:01:37;12.13;;;8.73;;
50988;SDS011;37008;52.210;21.112;2023-04-24T01:04:07;14.63;;;9.25;;
50988;SDS011;37008;52.210;21.112;2023-04-24T01:06:33;14.13;;;8.75;;
50988;SDS011;37008;52.210;21.112;2023-04-24T01:08:59;15.95;;;8.82;;
50988;SDS011;37008;52.210;21.112;2023-04-24T01:11:25;15.13;;;9.02;;
50988;SDS011;37008;52.210;21.112;2023-04-24T01:13:51;14.02;;;9.13;;
50988;SDS011;37008;52.210;21.112;2023-04-24T01:16:18;17.60;;;9.75;;
50988;SDS011;37008;52.210;21.112;2023-04-24T01:18:45;13.98;;;8.88;;
50988;SDS011;37008;52.210;21.112;2023-04-24T01:21:12;16.08;;;9.77;;
50988;SDS011;37008;52.210;21.112;2023-04-24T01:23:40;13.48;;;8.65;;
50988;SDS011;37008;52.210;21.112;2023-04-24T01:26:05;13.25;;;8.85;;
50988;SDS011;37008;52.210;21.112;2023-04-24T01:28:31;14.82;;;9.30;;
50988;SDS011;37008;52.210;21.112;2023-04-24T01:30:57;13.65;;;8.95;;
50988;SDS011;37008;52.210;21.112;2023-04-24T01:33:24;15.77;;;9.23;;
50988;SDS011;37008;52.210;21.112;2023-04-24T01:35:50;14.60;;;8.80;;
50988;SDS011;37008;52.210;21.112;2023-04-24T01:38:15;16.83;;;9.20;;
50988;SDS011;37008;52.210;21.112;2023-04-24T01:40:41;14.82;;;8.50;;
50988;SDS011;37008;52.210;21.112;2023-04-24T01:43:07;14.15;;;8.43;;
50988;SDS011;37008;52.210;21.112;2023-04-24T01:45:32;15.35;;;9.52;;
50988;SDS011;37008;52.210;21.112;2023-04-24T01:47:58;14.02;;;8.77;;
50988;SDS011;37008;52.210;21.112;2023-04-24T01:50:25;14.63;;;8.82;;
50988;SDS011;37008;52.210;21.112;2023-04-24T01:52:50;15.23;;;8.52;;
50988;SDS011;37008;52.210;21.112;2023-04-24T01:55:16;13.95;;;8.50;;
50988;SDS011;37008;52.210;21.112;2023-04-24T01:57:42;20.67;;;8.90;;
50988;SDS011;37008;52.210;21.112;2023-04-24T02:00:08;18.33;;;9.15;;
50988;SDS011;37008;52.210;21.112;2023-04-24T02:02:34;22.98;;;8.55;;
50988;SDS011;37008;52.210;21.112;2023-04-24T02:04:59;17.27;;;9.15;;
50988;SDS011;37008;52.210;21.112;2023-04-24T02:07:25;18.83;;;10.07;;
50988;SDS011;37008;52.210;21.112;2023-04-24T02:09:51;15.40;;;9.35;;
50988;SDS011;37008;52.210;21.112;2023-04-24T02:12:16;19.17;;;9.23;;
50988;SDS011;37008;52.210;21.112;2023-04-24T02:14:42;14.52;;;8.60;;
50988;SDS011;37008;52.210;21.112;2023-04-24T02:17:09;14.35;;;8.90;;
50988;SDS011;37008;52.210;21.112;2023-04-24T02:19:34;20.08;;;8.90;;
50988;SDS011;37008;52.210;21.112;2023-04-24T02:22:00;18.50;;;8.98;;
50988;SDS011;37008;52.210;21.112;2023-04-24T02:24:26;12.88;;;9.32;;
50988;SDS011;37008;52.210;21.112;2023-04-24T02:26:51;17.08;;;9.95;;
50988;SDS011;37008;52.210;21.112;2023-04-24T02:29:17;15.48;;;10.95;;
50988;SDS011;37008;52.210;21.112;2023-04-24T02:31:43;14.05;;;9.55;;
50988;SDS011;37008;52.210;21.112;2023-04-24T02:34:08;14.38;;;10.20;;
50988;SDS011;37008;52.210;21.112;2023-04-24T02:36:34;23.15;;;10.70;;
50988;SDS011;37008;52.210;21.112;2023-04-24T02:39:00;16.85;;;10.77;;
50988;SDS011;37008;52.210;21.112;2023-04-24T02:41:26;14.05;;;10.13;;
50988;SDS011;37008;52.210;21.112;2023-04-24T02:43:56;16.85;;;10.35;;
50988;SDS011;37008;52.210;21.112;2023-04-24T02:46:22;16.05;;;11.07;;
50988;SDS011;37008;52.210;21.112;2023-04-24T02:48:48;15.57;;;10.25;;
50988;SDS011;37008;52.210;21.112;2023-04-24T02:51:13;15.32;;;9.85;;
50988;SDS011;37008;52.210;21.112;2023-04-24T02:53:39;14.05;;;10.10;;
50988;SDS011;37008;52.210;21.112;2023-04-24T02:56:05;17.15;;;11.05;;
50988;SDS011;37008;52.210;21.112;2023-04-24T02:58:30;18.60;;;11.05;;
50988;SDS011;37008;52.210;21.112;2023-04-24T03:00:56;22.42;;;10.57;;
50988;SDS011;37008;52.210;21.112;2023-04-24T03:03:21;17.77;;;11.70;;
50988;SDS011;37008;52.210;21.112;2023-04-24T03:05:47;17.13;;;11.10;;
50988;SDS011;37008;52.210;21.112;2023-04-24T03:08:13;19.10;;;11.10;;
50988;SDS011;37008;52.210;21.112;2023-04-24T03:10:39;19.35;;;11.65;;
50988;SDS011;37008;52.210;21.112;2023-04-24T03:13:05;15.77;;;10.68;;
50988;SDS011;37008;52.210;21.112;2023-04-24T03:15:30;14.85;;;10.35;;
50988;SDS011;37008;52.210;21.112;2023-04-24T03:17:56;14.95;;;10.95;;
50988;SDS011;37008;52.210;21.112;2023-04-24T03:20:22;16.15;;;11.68;;
50988;SDS011;37008;52.210;21.112;2023-04-24T03:22:47;16.92;;;10.82;;
50988;SDS011;37008;52.210;21.112;2023-04-24T03:25:13;15.98;;;12.05;;
50988;SDS011;37008;52.210;21.112;2023-04-24T03:27:39;19.95;;;11.85;;
50988;SDS011;37008;52.210;21.112;2023-04-24T03:30:05;22.27;;;11.50;;
50988;SDS011;37008;52.210;21.112;2023-04-24T03:32:32;17.90;;;11.05;;
50988;SDS011;37008;52.210;21.112;2023-04-24T03:34:57;16.13;;;10.90;;
50988;SDS011;37008;52.210;21.112;2023-04-24T03:37:23;14.48;;;10.38;;
50988;SDS011;37008;52.210;21.112;2023-04-24T03:39:48;15.50;;;9.93;;
50988;SDS011;37008;52.210;21.112;2023-04-24T03:42:14;17.20;;;11.05;;
50988;SDS011;37008;52.210;21.112;2023-04-24T03:44:40;17.42;;;11.13;;
50988;SDS011;37008;52.210;21.112;2023-04-24T03:47:05;21.73;;;12.05;;
50988;SDS011;37008;52.210;21.112;2023-04-24T03:49:31;19.73;;;11.10;;
50988;SDS011;37008;52.210;21.112;2023-04-24T03:51:56;19.60;;;11.00;;
50988;SDS011;37008;52.210;21.112;2023-04-24T03:54:22;13.35;;;9.90;;
50988;SDS011;37008;52.210;21.112;2023-04-24T03:56:48;15.05;;;10.23;;
50988;SDS011;37008;52.210;21.112;2023-04-24T03:59:13;14.98;;;10.50;;
50988;SDS011;37008;52.210;21.112;2023-04-24T04:01:39;15.88;;;11.15;;
50988;SDS011;37008;52.210;21.112;2023-04-24T04:04:05;20.65;;;11.35;;
50988;SDS011;37008;52.210;21.112;2023-04-24T04:06:31;14.98;;;10.90;;
50988;SDS011;37008;52.210;21.112;2023-04-24T04:08:57;23.55;;;10.98;;
50988;SDS011;37008;52.210;21.112;2023-04-24T04:11:23;15.63;;;10.63;;
50988;SDS011;37008;52.210;21.112;2023-04-24T04:13:49;20.17;;;11.25;;
50988;SDS011;37008;52.210;21.112;2023-04-24T04:16:15;17.00;;;11.38;;
50988;SDS011;37008;52.210;21.112;2023-04-24T04:18:44;15.23;;;10.82;;
50988;SDS011;37008;52.210;21.112;2023-04-24T04:21:10;18.67;;;11.05;;
50988;SDS011;37008;52.210;21.112;2023-04-24T04:23:36;22.70;;;11.90;;
50988;SDS011;37008;52.210;21.112;2023-04-24T04:26:05;17.02;;;11.45;;
50988;SDS011;37008;52.210;21.112;2023-04-24T04:28:31;16.75;;;11.27;;
50988;SDS011;37008;52.210;21.112;2023-04-24T04:30:57;17.67;;;10.68;;
50988;SDS011;37008;52.210;21.112;2023-04-24T04:33:23;21.35;;;11.02;;
50988;SDS011;37008;52.210;21.112;2023-04-24T04:35:49;15.02;;;10.27;;
50988;SDS011;37008;52.210;21.112;2023-04-24T04:38:17;16.65;;;9.70;;
50988;SDS011;37008;52.210;21.112;2023-04-24T04:40:43;17.60;;;10.00;;
50988;SDS011;37008;52.210;21.112;2023-04-24T04:43:09;15.80;;;9.70;;
50988;SDS011;37008;52.210;21.112;2023-04-24T04:45:36;27.20;;;10.18;;
50988;SDS011;37008;52.210;21.112;2023-04-24T04:48:02;20.05;;;9.02;;
50988;SDS011;37008;52.210;21.112;2023-04-24T04:50:28;21.67;;;8.95;;
50988;SDS011;37008;52.210;21.112;2023-04-24T04:52:54;20.33;;;9.88;;
50988;SDS011;37008;52.210;21.112;2023-04-24T04:55:19;17.33;;;9.95;;
50988;SDS011;37008;52.210;21.112;2023-04-24T04:57:45;15.48;;;9.55;;
50988;SDS011;37008;52.210;21.112;2023-04-24T05:00:11;18.95;;;9.65;;
50988;SDS011;37008;52.210;21.112;2023-04-24T05:02:38;15.55;;;9.27;;
50988;SDS011;37008;52.210;21.112;2023-04-24T05:05:04;15.77;;;8.90;;
50988;SDS011;37008;52.210;21.112;2023-04-24T05:07:31;16.77;;;9.90;;
50988;SDS011;37008;52.210;21.112;2023-04-24T05:09:56;16.75;;;9.02;;
50988;SDS011;37008;52.210;21.112;2023-04-24T05:12:22;13.65;;;8.82;;
50988;SDS011;37008;52.210;21.112;2023-04-24T05:14:48;15.48;;;8.90;;
50988;SDS011;37008;52.210;21.112;2023-04-24T05:17:13;13.13;;;9.18;;
50988;SDS011;37008;52.210;21.112;2023-04-24T05:19:40;13.95;;;9.15;;
50988;SDS011;37008;52.210;21.112;2023-04-24T05:22:05;15.50;;;8.95;;
50988;SDS011;37008;52.210;21.112;2023-04-24T05:24:34;13.05;;;8.95;;
50988;SDS011;37008;52.210;21.112;2023-04-24T05:27:00;11.10;;;8.35;;
50988;SDS011;37008;52.210;21.112;2023-04-24T05:29:29;11.60;;;8.68;;
50988;SDS011;37008;52.210;21.112;2023-04-24T05:31:58;14.60;;;8.85;;
50988;SDS011;37008;52.210;21.112;2023-04-24T05:34:25;14.38;;;8.23;;
50988;SDS011;37008;52.210;21.112;2023-04-24T05:36:50;16.65;;;9.05;;
50988;SDS011;37008;52.210;21.112;2023-04-24T05:39:16;15.45;;;9.15;;
50988;SDS011;37008;52.210;21.112;2023-04-24T05:41:42;13.27;;;8.02;;
50988;SDS011;37008;52.210;21.112;2023-04-24T05:44:08;15.57;;;8.65;;
50988;SDS011;37008;52.210;21.112;2023-04-24T05:46:34;17.73;;;8.23;;
50988;SDS011;37008;52.210;21.112;2023-04-24T05:49:00;19.95;;;9.15;;
50988;SDS011;37008;52.210;21.112;2023-04-24T05:51:25;12.00;;;8.50;;
50988;SDS011;37008;52.210;21.112;2023-04-24T05:53:51;15.00;;;8.10;;
50988;SDS011;37008;52.210;21.112;2023-04-24T05:56:17;12.63;;;7.97;;
50988;SDS011;37008;52.210;21.112;2023-04-24T05:58:43;17.55;;;8.63;;
50988;SDS011;37008;52.210;21.112;2023-04-24T06:01:10;17.75;;;8.63;;
50988;SDS011;37008;52.210;21.112;2023-04-24T06:03:36;14.77;;;8.60;;
50988;SDS011;37008;52.210;21.112;2023-04-24T06:06:02;15.23;;;8.65;;
50988;SDS011;37008;52.210;21.112;2023-04-24T06:08:28;17.80;;;8.40;;
50988;SDS011;37008;52.210;21.112;2023-04-24T06:10:54;17.25;;;8.50;;
50988;SDS011;37008;52.210;21.112;2023-04-24T06:13:19;21.13;;;8.50;;
50988;SDS011;37008;52.210;21.112;2023-04-24T06:15:45;13.25;;;8.07;;
50988;SDS011;37008;52.210;21.112;2023-04-24T06:18:10;13.73;;;7.80;;
50988;SDS011;37008;52.210;21.112;2023-04-24T06:20:37;18.60;;;7.93;;
50988;SDS011;37008;52.210;21.112;2023-04-24T06:23:03;15.30;;;7.60;;
50988;SDS011;37008;52.210;21.112;2023-04-24T06:25:28;13.18;;;7.78;;
50988;SDS011;37008;52.210;21.112;2023-04-24T06:27:54;14.63;;;7.47;;
50988;SDS011;37008;52.210;21.112;2023-04-24T06:30:20;12.20;;;7.80;;
50988;SDS011;37008;52.210;21.112;2023-04-24T06:32:46;14.32;;;7.65;;
50988;SDS011;37008;52.210;21.112;2023-04-24T06:35:12;15.20;;;8.65;;
50988;SDS011;37008;52.210;21.112;2023-04-24T06:37:41;17.63;;;8.10;;
50988;SDS011;37008;52.210;21.112;2023-04-24T06:40:07;19.67;;;8.10;;
50988;SDS011;37008;52.210;21.112;2023-04-24T06:42:34;24.17;;;8.25;;
50988;SDS011;37008;52.210;21.112;2023-04-24T06:45:00;21.08;;;8.43;;
50988;SDS011;37008;52.210;21.112;2023-04-24T06:47:26;16.27;;;7.72;;
50988;SDS011;37008;52.210;21.112;2023-04-24T06:49:51;21.17;;;7.57;;
50988;SDS011;37008;52.210;21.112;2023-04-24T06:52:18;22.73;;;7.57;;
50988;SDS011;37008;52.210;21.112;2023-04-24T06:54:44;23.02;;;7.90;;
50988;SDS011;37008;52.210;21.112;2023-04-24T06:57:09;12.63;;;7.75;;
50988;SDS011;37008;52.210;21.112;2023-04-24T06:59:35;12.15;;;7.70;;
50988;SDS011;37008;52.210;21.112;2023-04-24T07:02:01;17.20;;;8.15;;
50988;SDS011;37008;52.210;21.112;2023-04-24T07:04:27;18.85;;;8.02;;
50988;SDS011;37008;52.210;21.112;2023-04-24T07:06:53;17.85;;;7.95;;
50988;SDS011;37008;52.210;21.112;2023-04-24T07:09:20;13.07;;;7.57;;
50988;SDS011;37008;52.210;21.112;2023-04-24T07:11:47;15.13;;;8.57;;
50988;SDS011;37008;52.210;21.112;2023-04-24T07:14:13;15.80;;;8.57;;
50988;SDS011;37008;52.210;21.112;2023-04-24T07:16:38;14.75;;;7.75;;
50988;SDS011;37008;52.210;21.112;2023-04-24T07:19:05;14.68;;;8.40;;
50988;SDS011;37008;52.210;21.112;2023-04-24T07:21:31;18.40;;;8.95;;
50988;SDS011;37008;52.210;21.112;2023-04-24T07:23:57;14.10;;;7.53;;
50988;SDS011;37008;52.210;21.112;2023-04-24T07:26:23;15.60;;;7.65;;
50988;SDS011;37008;52.210;21.112;2023-04-24T07:28:49;17.05;;;7.72;;
50988;SDS011;37008;52.210;21.112;2023-04-24T07:31:15;15.13;;;7.28;;
50988;SDS011;37008;52.210;21.112;2023-04-24T07:33:41;16.40;;;6.82;;
50988;SDS011;37008;52.210;21.112;2023-04-24T07:36:06;17.73;;;7.03;;
50988;SDS011;37008;52.210;21.112;2023-04-24T07:38:32;12.25;;;7.22;;
50988;SDS011;37008;52.210;21.112;2023-04-24T07:40:58;18.08;;;6.80;;
50988;SDS011;37008;52.210;21.112;2023-04-24T07:43:23;14.63;;;6.72;;
50988;SDS011;37008;52.210;21.112;2023-04-24T07:45:52;12.57;;;6.10;;
50988;SDS011;37008;52.210;21.112;2023-04-24T07:48:18;12.25;;;6.28;;
50988;SDS011;37008;52.210;21.112;2023-04-24T07:50:44;17.00;;;6.05;;
50988;SDS011;37008;52.210;21.112;2023-04-24T07:53:10;10.50;;;7.00;;
50988;SDS011;37008;52.210;21.112;2023-04-24T07:55:35;9.60;;;6.30;;
50988;SDS011;37008;52.210;21.112;2023-04-24T07:58:01;16.10;;;6.95;;
50988;SDS011;37008;52.210;21.112;2023-04-24T08:00:27;14.57;;;6.57;;
50988;SDS011;37008;52.210;21.112;2023-04-24T08:02:53;13.35;;;6.18;;
50988;SDS011;37008;52.210;21.112;2023-04-24T08:05:18;18.80;;;6.35;;
50988;SDS011;37008;52.210;21.112;2023-04-24T08:07:45;9.20;;;6.13;;
50988;SDS011;37008;52.210;21.112;2023-04-24T08:10:13;14.02;;;7.22;;
50988;SDS011;37008;52.210;21.112;2023-04-24T08:12:39;14.15;;;6.22;;
50988;SDS011;37008;52.210;21.112;2023-04-24T08:15:06;15.38;;;6.65;;
50988;SDS011;37008;52.210;21.112;2023-04-24T08:17:33;15.50;;;6.22;;
50988;SDS011;37008;52.210;21.112;2023-04-24T08:20:00;15.65;;;5.82;;
50988;SDS011;37008;52.210;21.112;2023-04-24T08:22:29;14.07;;;5.95;;
50988;SDS011;37008;52.210;21.112;2023-04-24T08:24:55;14.32;;;6.30;;
50988;SDS011;37008;52.210;21.112;2023-04-24T08:27:22;11.52;;;5.72;;
50988;SDS011;37008;52.210;21.112;2023-04-24T08:29:48;12.50;;;5.55;;
50988;SDS011;37008;52.210;21.112;2023-04-24T08:32:14;15.63;;;5.82;;
50988;SDS011;37008;52.210;21.112;2023-04-24T08:34:40;11.15;;;5.60;;
50988;SDS011;37008;52.210;21.112;2023-04-24T08:37:05;17.63;;;5.65;;
50988;SDS011;37008;52.210;21.112;2023-04-24T08:39:31;12.18;;;5.65;;
50988;SDS011;37008;52.210;21.112;2023-04-24T08:41:57;13.30;;;6.20;;
50988;SDS011;37008;52.210;21.112;2023-04-24T08:44:30;15.70;;;5.40;;
50988;SDS011;37008;52.210;21.112;2023-04-24T08:46:57;7.95;;;5.35;;
50988;SDS011;37008;52.210;21.112;2023-04-24T08:49:22;11.02;;;6.20;;
50988;SDS011;37008;52.210;21.112;2023-04-24T08:51:50;9.35;;;5.88;;
50988;SDS011;37008;52.210;21.112;2023-04-24T08:54:17;11.15;;;6.15;;
50988;SDS011;37008;52.210;21.112;2023-04-24T08:56:44;9.07;;;5.55;;
50988;SDS011;37008;52.210;21.112;2023-04-24T08:59:10;10.80;;;5.63;;
50988;SDS011;37008;52.210;21.112;2023-04-24T09:01:36;10.95;;;5.00;;
50988;SDS011;37008;52.210;21.112;2023-04-24T09:04:04;19.00;;;6.63;;
50988;SDS011;37008;52.210;21.112;2023-04-24T09:06:32;7.32;;;5.07;;
50988;SDS011;37008;52.210;21.112;2023-04-24T09:09:02;11.02;;;4.35;;
50988;SDS011;37008;52.210;21.112;2023-04-24T09:11:29;10.07;;;4.97;;
50988;SDS011;37008;52.210;21.112;2023-04-24T09:13:57;8.48;;;4.72;;
50988;SDS011;37008;52.210;21.112;2023-04-24T09:16:24;8.63;;;5.63;;
50988;SDS011;37008;52.210;21.112;2023-04-24T09:18:51;6.65;;;5.40;;
50988;SDS011;37008;52.210;21.112;2023-04-24T09:21:17;9.93;;;5.03;;
50988;SDS011;37008;52.210;21.112;2023-04-24T09:23:46;16.00;;;5.45;;
50988;SDS011;37008;52.210;21.112;2023-04-24T09:26:11;11.38;;;5.43;;
50988;SDS011;37008;52.210;21.112;2023-04-24T09:28:40;9.85;;;5.18;;
50988;SDS011;37008;52.210;21.112;2023-04-24T09:33:37;10.23;;;5.10;;
50988;SDS011;37008;52.210;21.112;2023-04-24T09:36:03;9.00;;;5.70;;
50988;SDS011;37008;52.210;21.112;2023-04-24T09:38:34;15.02;;;5.75;;
50988;SDS011;37008;52.210;21.112;2023-04-24T09:41:02;15.70;;;6.00;;
50988;SDS011;37008;52.210;21.112;2023-04-24T09:43:29;10.88;;;5.82;;
50988;SDS011;37008;52.210;21.112;2023-04-24T09:45:56;18.95;;;6.18;;
50988;SDS011;37008;52.210;21.112;2023-04-24T09:48:30;8.38;;;5.47;;
50988;SDS011;37008;52.210;21.112;2023-04-24T09:50:57;9.75;;;5.78;;
50988;SDS011;37008;52.210;21.112;2023-04-24T09:53:24;14.02;;;6.30;;
50988;SDS011;37008;52.210;21.112;2023-04-24T09:55:50;12.25;;;5.68;;
50988;SDS011;37008;52.210;21.112;2023-04-24T09:58:18;12.13;;;5.93;;
50988;SDS011;37008;52.210;21.112;2023-04-24T10:00:49;14.32;;;6.50;;
50988;SDS011;37008;52.210;21.112;2023-04-24T10:03:18;12.23;;;6.45;;
50988;SDS011;37008;52.210;21.112;2023-04-24T10:05:44;13.85;;;5.88;;
50988;SDS011;37008;52.210;21.112;2023-04-24T10:08:12;26.38;;;8.15;;
50988;SDS011;37008;52.210;21.112;2023-04-24T10:10:38;15.00;;;6.78;;
50988;SDS011;37008;52.210;21.112;2023-04-24T10:13:06;8.35;;;6.00;;
50988;SDS011;37008;52.210;21.112;2023-04-24T10:15:34;13.70;;;6.03;;
50988;SDS011;37008;52.210;21.112;2023-04-24T10:18:00;12.23;;;5.90;;
50988;SDS011;37008;52.210;21.112;2023-04-24T10:20:27;10.18;;;5.93;;
50988;SDS011;37008;52.210;21.112;2023-04-24T10:22:56;8.93;;;5.07;;
50988;SDS011;37008;52.210;21.112;2023-04-24T10:25:23;7.43;;;5.38;;
50988;SDS011;37008;52.210;21.112;2023-04-24T10:27:51;7.65;;;5.18;;
50988;SDS011;37008;52.210;21.112;2023-04-24T10:30:18;12.98;;;5.82;;
50988;SDS011;37008;52.210;21.112;2023-04-24T10:32:45;18.70;;;6.95;;
50988;SDS011;37008;52.210;21.112;2023-04-24T10:35:14;17.52;;;6.50;;
50988;SDS011;37008;52.210;21.112;2023-04-24T10:37:42;11.85;;;5.18;;
50988;SDS011;37008;52.210;21.112;2023-04-24T10:40:11;8.90;;;4.55;;
50988;SDS011;37008;52.210;21.112;2023-04-24T10:42:41;11.63;;;5.78;;
50988;SDS011;37008;52.210;21.112;2023-04-24T10:45:15;11.25;;;4.55;;
50988;SDS011;37008;52.210;21.112;2023-04-24T10:48:05;10.73;;;4.93;;
50988;SDS011;37008;52.210;21.112;2023-04-24T10:50:44;15.45;;;5.03;;
50988;SDS011;37008;52.210;21.112;2023-04-24T10:53:18;12.20;;;4.80;;
50988;SDS011;37008;52.210;21.112;2023-04-24T10:55:51;8.35;;;4.78;;
50988;SDS011;37008;52.210;21.112;2023-04-24T10:58:44;9.70;;;4.68;;
50988;SDS011;37008;52.210;21.112;2023-04-24T11:01:33;8.20;;;4.75;;
50988;SDS011;37008;52.210;21.112;2023-04-24T11:03:59;15.55;;;5.68;;
50988;SDS011;37008;52.210;21.112;2023-04-24T11:06:31;14.63;;;5.90;;
50988;SDS011;37008;52.210;21.112;2023-04-24T11:09:07;14.27;;;4.82;;
50988;SDS011;37008;52.210;21.112;2023-04-24T11:11:35;8.40;;;4.60;;
50988;SDS011;37008;52.210;21.112;2023-04-24T11:14:03;7.38;;;3.97;;
50988;SDS011;37008;52.210;21.112;2023-04-24T11:19:25;6.65;;;4.28;;
50988;SDS011;37008;52.210;21.112;2023-04-24T11:22:00;9.45;;;4.00;;
50988;SDS011;37008;52.210;21.112;2023-04-24T11:24:28;13.98;;;4.80;;
50988;SDS011;37008;52.210;21.112;2023-04-24T11:29:44;9.70;;;4.22;;
50988;SDS011;37008;52.210;21.112;2023-04-24T11:32:26;15.52;;;5.03;;
50988;SDS011;37008;52.210;21.112;2023-04-24T11:34:59;14.98;;;4.85;;
50988;SDS011;37008;52.210;21.112;2023-04-24T11:37:26;8.25;;;4.70;;
50988;SDS011;37008;52.210;21.112;2023-04-24T11:39:55;7.55;;;4.32;;
50988;SDS011;37008;52.210;21.112;2023-04-24T11:42:22;8.27;;;3.85;;
50988;SDS011;37008;52.210;21.112;2023-04-24T11:44:51;8.43;;;4.07;;
50988;SDS011;37008;52.210;21.112;2023-04-24T11:47:18;10.90;;;4.22;;
50988;SDS011;37008;52.210;21.112;2023-04-24T11:49:43;16.42;;;5.65;;
50988;SDS011;37008;52.210;21.112;2023-04-24T11:52:09;15.35;;;4.50;;
50988;SDS011;37008;52.210;21.112;2023-04-24T11:54:35;8.20;;;4.05;;
50988;SDS011;37008;52.210;21.112;2023-04-24T11:57:03;6.53;;;3.58;;
50988;SDS011;37008;52.210;21.112;2023-04-24T11:59:35;11.55;;;4.40;;
50988;SDS011;37008;52.210;21.112;2023-04-24T12:02:01;10.93;;;4.18;;
50988;SDS011;37008;52.210;21.112;2023-04-24T12:04:37;8.23;;;4.60;;
50988;SDS011;37008;52.210;21.112;2023-04-24T12:07:06;11.10;;;4.20;;
50988;SDS011;37008;52.210;21.112;2023-04-24T12:09:49;7.97;;;4.43;;
50988;SDS011;37008;52.210;21.112;2023-04-24T12:12:28;7.68;;;4.40;;
50988;SDS011;37008;52.210;21.112;2023-04-24T12:14:54;13.10;;;4.10;;
50988;SDS011;37008;52.210;21.112;2023-04-24T12:17:24;9.85;;;4.65;;
50988;SDS011;37008;52.210;21.112;2023-04-24T12:19:56;7.32;;;3.85;;
50988;SDS011;37008;52.210;21.112;2023-04-24T12:22:27;9.30;;;4.47;;
50988;SDS011;37008;52.210;21.112;2023-04-24T12:24:57;6.60;;;3.90;;
50988;SDS011;37008;52.210;21.112;2023-04-24T12:27:31;9.15;;;4.28;;
50988;SDS011;37008;52.210;21.112;2023-04-24T12:29:58;8.18;;;4.50;;
50988;SDS011;37008;52.210;21.112;2023-04-24T12:32:25;7.25;;;3.92;;
50988;SDS011;37008;52.210;21.112;2023-04-24T12:34:51;10.35;;;4.10;;
50988;SDS011;37008;52.210;21.112;2023-04-24T12:37:18;8.25;;;4.20;;
50988;SDS011;37008;52.210;21.112;2023-04-24T12:39:58;8.93;;;4.32;;
50988;SDS011;37008;52.210;21.112;2023-04-24T12:42:26;12.25;;;5.30;;
50988;SDS011;37008;52.210;21.112;2023-04-24T12:44:55;10.63;;;5.20;;
50988;SDS011;37008;52.210;21.112;2023-04-24T12:47:24;9.93;;;4.65;;
50988;SDS011;37008;52.210;21.112;2023-04-24T12:49:50;73.50;;;8.40;;
50988;SDS011;37008;52.210;21.112;2023-04-24T12:52:17;18.58;;;4.40;;
50988;SDS011;37008;52.210;21.112;2023-04-24T12:54:45;35.28;;;5.10;;
50988;SDS011;37008;52.210;21.112;2023-04-24T12:57:11;34.75;;;4.85;;
50988;SDS011;37008;52.210;21.112;2023-04-24T12:59:36;31.58;;;4.88;;
50988;SDS011;37008;52.210;21.112;2023-04-24T13:02:02;22.52;;;3.70;;
50988;SDS011;37008;52.210;21.112;2023-04-24T13:04:27;25.55;;;3.42;;
50988;SDS011;37008;52.210;21.112;2023-04-24T13:06:53;18.52;;;4.30;;
50988;SDS011;37008;52.210;21.112;2023-04-24T13:09:19;25.38;;;4.30;;
50988;SDS011;37008;52.210;21.112;2023-04-24T13:11:44;9.98;;;3.22;;
50988;SDS011;37008;52.210;21.112;2023-04-24T13:14:10;13.02;;;3.72;;
50988;SDS011;37008;52.210;21.112;2023-04-24T13:16:35;12.88;;;3.28;;
50988;SDS011;37008;52.210;21.112;2023-04-24T13:19:01;11.55;;;3.63;;
50988;SDS011;37008;52.210;21.112;2023-04-24T13:21:26;11.50;;;3.22;;
50988;SDS011;37008;52.210;21.112;2023-04-24T13:23:52;10.07;;;3.20;;
50988;SDS011;37008;52.210;21.112;2023-04-24T13:26:18;11.02;;;3.50;;
50988;SDS011;37008;52.210;21.112;2023-04-24T13:28:43;10.18;;;3.42;;
50988;SDS011;37008;52.210;21.112;2023-04-24T13:31:09;13.60;;;2.90;;
50988;SDS011;37008;52.210;21.112;2023-04-24T13:33:35;11.73;;;3.40;;
50988;SDS011;37008;52.210;21.112;2023-04-24T13:36:00;8.13;;;3.10;;
50988;SDS011;37008;52.210;21.112;2023-04-24T13:38:26;6.15;;;2.83;;
50988;SDS011;37008;52.210;21.112;2023-04-24T13:40:52;24.50;;;3.95;;
50988;SDS011;37008;52.210;21.112;2023-04-24T13:43:17;14.20;;;3.55;;
50988;SDS011;37008;52.210;21.112;2023-04-24T13:45:43;12.50;;;3.40;;
50988;SDS011;37008;52.210;21.112;2023-04-24T13:48:09;8.00;;;2.90;;
50988;SDS011;37008;52.210;21.112;2023-04-24T13:50:34;8.88;;;2.80;;
50988;SDS011;37008;52.210;21.112;2023-04-24T13:53:01;5.07;;;2.60;;
50988;SDS011;37008;52.210;21.112;2023-04-24T13:55:28;8.98;;;2.80;;
50988;SDS011;37008;52.210;21.112;2023-04-24T13:57:54;7.05;;;3.13;;
50988;SDS011;37008;52.210;21.112;2023-04-24T14:00:20;6.72;;;3.60;;
50988;SDS011;37008;52.210;21.112;2023-04-24T14:02:46;4.93;;;2.45;;
50988;SDS011;37008;52.210;21.112;2023-04-24T14:05:12;8.18;;;3.00;;
50988;SDS011;37008;52.210;21.112;2023-04-24T14:07:40;6.05;;;2.60;;
50988;SDS011;37008;52.210;21.112;2023-04-24T14:10:06;8.13;;;3.40;;
50988;SDS011;37008;52.210;21.112;2023-04-24T14:12:33;13.88;;;3.67;;
50988;SDS011;37008;52.210;21.112;2023-04-24T14:14:58;5.65;;;2.85;;
50988;SDS011;37008;52.210;21.112;2023-04-24T14:17:26;6.20;;;3.15;;
50988;SDS011;37008;52.210;21.112;2023-04-24T14:19:51;4.05;;;2.60;;
50988;SDS011;37008;52.210;21.112;2023-04-24T14:22:21;5.78;;;2.50;;
50988;SDS011;37008;52.210;21.112;2023-04-24T14:24:46;5.28;;;2.55;;
50988;SDS011;37008;52.210;21.112;2023-04-24T14:27:12;2.83;;;2.42;;